sensor_id;sensor_type;location;lat;lon;timestamp;P1;durP1;ratioP1;P2;durP2;ratioP2
52031;SDS011;38044;45.148;39.604;2022-11-20T00:01:15;27.90;;;14.80;;
52031;SDS011;38044;45.148;39.604;2022-11-20T00:03:42;26.23;;;14.55;;
52031;SDS011;38044;45.148;39.604;2022-11-20T00:06:09;24.02;;;14.80;;
52031;SDS011;38044;45.148;39.604;2022-11-20T00:08:37;30.20;;;15.55;;
52031;SDS011;38044;45.148;39.604;2022-11-20T00:11:04;23.52;;;14.65;;
52031;SDS011;38044;45.148;39.604;2022-11-20T00:13:32;27.23;;;14.63;;
52031;SDS011;38044;45.148;39.604;2022-11-20T00:15:59;23.38;;;13.98;;
52031;SDS011;38044;45.148;39.604;2022-11-20T00:18:26;28.25;;;15.18;;
52031;SDS011;38044;45.148;39.604;2022-11-20T00:20:52;29.50;;;15.13;;
52031;SDS011;38044;45.148;39.604;2022-11-20T00:23:19;22.80;;;14.45;;
52031;SDS011;38044;45.148;39.604;2022-11-20T00:25:45;25.20;;;14.25;;
52031;SDS011;38044;45.148;39.604;2022-11-20T00:28:11;22.50;;;14.60;;
52031;SDS011;38044;45.148;39.604;2022-11-20T00:30:37;24.00;;;14.52;;
52031;SDS011;38044;45.148;39.604;2022-11-20T00:33:02;23.83;;;15.13;;
52031;SDS011;38044;45.148;39.604;2022-11-20T00:35:28;24.65;;;14.68;;
52031;SDS011;38044;45.148;39.604;2022-11-20T00:37:54;21.15;;;13.80;;
52031;SDS011;38044;45.148;39.604;2022-11-20T00:40:20;24.98;;;14.75;;
52031;SDS011;38044;45.148;39.604;2022-11-20T00:42:46;26.52;;;15.65;;
52031;SDS011;38044;45.148;39.604;2022-11-20T00:45:12;22.38;;;14.85;;
52031;SDS011;38044;45.148;39.604;2022-11-20T00:47:38;26.05;;;13.98;;
52031;SDS011;38044;45.148;39.604;2022-11-20T00:50:04;26.13;;;15.27;;
52031;SDS011;38044;45.148;39.604;2022-11-20T00:52:30;22.15;;;14.23;;
52031;SDS011;38044;45.148;39.604;2022-11-20T00:54:56;23.52;;;14.85;;
52031;SDS011;38044;45.148;39.604;2022-11-20T00:57:21;28.30;;;15.07;;
52031;SDS011;38044;45.148;39.604;2022-11-20T00:59:47;24.73;;;14.80;;
52031;SDS011;38044;45.148;39.604;2022-11-20T01:02:13;28.15;;;15.23;;
52031;SDS011;38044;45.148;39.604;2022-11-20T01:04:41;22.45;;;15.77;;
52031;SDS011;38044;45.148;39.604;2022-11-20T01:07:07;24.60;;;15.07;;
52031;SDS011;38044;45.148;39.604;2022-11-20T01:09:33;22.15;;;14.88;;
52031;SDS011;38044;45.148;39.604;2022-11-20T01:11:59;25.83;;;15.68;;
52031;SDS011;38044;45.148;39.604;2022-11-20T01:14:25;26.88;;;15.23;;
52031;SDS011;38044;45.148;39.604;2022-11-20T01:16:51;26.55;;;15.95;;
52031;SDS011;38044;45.148;39.604;2022-11-20T01:19:18;31.95;;;18.17;;
52031;SDS011;38044;45.148;39.604;2022-11-20T01:21:48;34.80;;;18.15;;
52031;SDS011;38044;45.148;39.604;2022-11-20T01:24:16;27.77;;;17.13;;
52031;SDS011;38044;45.148;39.604;2022-11-20T01:26:44;28.92;;;17.33;;
52031;SDS011;38044;45.148;39.604;2022-11-20T01:29:13;25.73;;;16.30;;
52031;SDS011;38044;45.148;39.604;2022-11-20T01:31:41;26.58;;;16.50;;
52031;SDS011;38044;45.148;39.604;2022-11-20T01:34:09;26.88;;;16.98;;
52031;SDS011;38044;45.148;39.604;2022-11-20T01:36:37;23.25;;;14.48;;
52031;SDS011;38044;45.148;39.604;2022-11-20T01:39:05;26.02;;;14.75;;
52031;SDS011;38044;45.148;39.604;2022-11-20T01:41:35;24.02;;;14.80;;
52031;SDS011;38044;45.148;39.604;2022-11-20T01:44:21;21.92;;;14.90;;
52031;SDS011;38044;45.148;39.604;2022-11-20T01:46:58;29.35;;;16.50;;
52031;SDS011;38044;45.148;39.604;2022-11-20T01:52:01;28.33;;;17.63;;
52031;SDS011;38044;45.148;39.604;2022-11-20T01:54:41;27.90;;;17.90;;
52031;SDS011;38044;45.148;39.604;2022-11-20T01:57:23;34.22;;;18.30;;
52031;SDS011;38044;45.148;39.604;2022-11-20T02:00:00;30.38;;;17.13;;
52031;SDS011;38044;45.148;39.604;2022-11-20T02:02:30;29.42;;;16.55;;
52031;SDS011;38044;45.148;39.604;2022-11-20T02:04:58;32.20;;;18.27;;
52031;SDS011;38044;45.148;39.604;2022-11-20T02:07:31;31.40;;;16.83;;
52031;SDS011;38044;45.148;39.604;2022-11-20T02:09:57;30.55;;;18.15;;
52031;SDS011;38044;45.148;39.604;2022-11-20T02:12:23;28.90;;;16.50;;
52031;SDS011;38044;45.148;39.604;2022-11-20T02:15:07;25.00;;;15.73;;
52031;SDS011;38044;45.148;39.604;2022-11-20T02:17:33;26.02;;;16.75;;
52031;SDS011;38044;45.148;39.604;2022-11-20T02:19:58;28.67;;;17.30;;
52031;SDS011;38044;45.148;39.604;2022-11-20T02:22:27;32.90;;;17.77;;
52031;SDS011;38044;45.148;39.604;2022-11-20T02:24:58;32.17;;;16.92;;
52031;SDS011;38044;45.148;39.604;2022-11-20T02:27:26;26.10;;;16.67;;
52031;SDS011;38044;45.148;39.604;2022-11-20T02:29:53;28.83;;;16.13;;
52031;SDS011;38044;45.148;39.604;2022-11-20T02:32:26;24.73;;;15.32;;
52031;SDS011;38044;45.148;39.604;2022-11-20T02:34:54;25.20;;;16.23;;
52031;SDS011;38044;45.148;39.604;2022-11-20T02:37:21;25.33;;;15.43;;
52031;SDS011;38044;45.148;39.604;2022-11-20T02:39:47;26.65;;;15.77;;
52031;SDS011;38044;45.148;39.604;2022-11-20T02:42:15;29.13;;;16.42;;
52031;SDS011;38044;45.148;39.604;2022-11-20T02:44:41;27.20;;;16.55;;
52031;SDS011;38044;45.148;39.604;2022-11-20T02:47:07;26.25;;;15.27;;
52031;SDS011;38044;45.148;39.604;2022-11-20T02:49:36;24.00;;;14.45;;
52031;SDS011;38044;45.148;39.604;2022-11-20T02:52:06;25.90;;;15.45;;
52031;SDS011;38044;45.148;39.604;2022-11-20T02:54:31;24.00;;;15.80;;
52031;SDS011;38044;45.148;39.604;2022-11-20T02:56:57;25.55;;;15.98;;
52031;SDS011;38044;45.148;39.604;2022-11-20T02:59:23;27.40;;;15.57;;
52031;SDS011;38044;45.148;39.604;2022-11-20T03:01:49;32.70;;;17.17;;
52031;SDS011;38044;45.148;39.604;2022-11-20T03:04:15;24.55;;;15.57;;
52031;SDS011;38044;45.148;39.604;2022-11-20T03:06:41;23.48;;;15.27;;
52031;SDS011;38044;45.148;39.604;2022-11-20T03:09:07;28.25;;;15.60;;
52031;SDS011;38044;45.148;39.604;2022-11-20T03:11:32;23.63;;;14.65;;
52031;SDS011;38044;45.148;39.604;2022-11-20T03:14:01;23.92;;;13.90;;
52031;SDS011;38044;45.148;39.604;2022-11-20T03:16:28;24.25;;;14.15;;
52031;SDS011;38044;45.148;39.604;2022-11-20T03:18:57;20.58;;;12.52;;
52031;SDS011;38044;45.148;39.604;2022-11-20T03:21:23;24.38;;;14.48;;
52031;SDS011;38044;45.148;39.604;2022-11-20T03:23:49;22.67;;;13.43;;
52031;SDS011;38044;45.148;39.604;2022-11-20T03:26:16;25.20;;;12.82;;
52031;SDS011;38044;45.148;39.604;2022-11-20T03:28:48;21.75;;;11.43;;
52031;SDS011;38044;45.148;39.604;2022-11-20T03:31:15;17.23;;;11.55;;
52031;SDS011;38044;45.148;39.604;2022-11-20T03:33:43;20.38;;;13.57;;
52031;SDS011;38044;45.148;39.604;2022-11-20T03:36:10;17.30;;;12.75;;
52031;SDS011;38044;45.148;39.604;2022-11-20T03:38:38;16.92;;;10.23;;
52031;SDS011;38044;45.148;39.604;2022-11-20T03:41:05;17.23;;;11.70;;
52031;SDS011;38044;45.148;39.604;2022-11-20T03:43:38;16.33;;;10.80;;
52031;SDS011;38044;45.148;39.604;2022-11-20T03:46:05;16.30;;;12.00;;
52031;SDS011;38044;45.148;39.604;2022-11-20T03:48:32;23.33;;;13.65;;
52031;SDS011;38044;45.148;39.604;2022-11-20T03:51:14;23.13;;;12.68;;
52031;SDS011;38044;45.148;39.604;2022-11-20T03:53:44;20.38;;;12.45;;
52031;SDS011;38044;45.148;39.604;2022-11-20T03:56:11;27.00;;;13.73;;
52031;SDS011;38044;45.148;39.604;2022-11-20T03:58:39;31.98;;;15.40;;
52031;SDS011;38044;45.148;39.604;2022-11-20T04:01:11;29.42;;;14.88;;
52031;SDS011;38044;45.148;39.604;2022-11-20T04:03:38;25.98;;;13.65;;
52031;SDS011;38044;45.148;39.604;2022-11-20T04:06:06;27.20;;;14.70;;
52031;SDS011;38044;45.148;39.604;2022-11-20T04:08:36;26.27;;;14.38;;
52031;SDS011;38044;45.148;39.604;2022-11-20T04:11:10;24.83;;;14.52;;
52031;SDS011;38044;45.148;39.604;2022-11-20T04:13:47;37.80;;;14.98;;
52031;SDS011;38044;45.148;39.604;2022-11-20T04:16:15;25.02;;;13.80;;
52031;SDS011;38044;45.148;39.604;2022-11-20T04:18:42;26.98;;;12.95;;
52031;SDS011;38044;45.148;39.604;2022-11-20T04:21:08;19.52;;;11.77;;
52031;SDS011;38044;45.148;39.604;2022-11-20T04:23:35;19.35;;;11.57;;
52031;SDS011;38044;45.148;39.604;2022-11-20T04:26:08;19.30;;;10.88;;
52031;SDS011;38044;45.148;39.604;2022-11-20T04:28:37;17.23;;;10.98;;
52031;SDS011;38044;45.148;39.604;2022-11-20T04:31:08;20.50;;;12.23;;
52031;SDS011;38044;45.148;39.604;2022-11-20T04:33:36;21.92;;;11.85;;
52031;SDS011;38044;45.148;39.604;2022-11-20T04:36:03;19.33;;;11.73;;
52031;SDS011;38044;45.148;39.604;2022-11-20T04:38:35;18.80;;;11.60;;
52031;SDS011;38044;45.148;39.604;2022-11-20T04:41:02;19.90;;;12.10;;
52031;SDS011;38044;45.148;39.604;2022-11-20T04:43:29;19.17;;;11.70;;
52031;SDS011;38044;45.148;39.604;2022-11-20T04:45:56;15.43;;;11.73;;
52031;SDS011;38044;45.148;39.604;2022-11-20T04:48:23;18.10;;;12.35;;
52031;SDS011;38044;45.148;39.604;2022-11-20T04:50:49;19.42;;;12.05;;
52031;SDS011;38044;45.148;39.604;2022-11-20T04:53:16;20.40;;;12.20;;
52031;SDS011;38044;45.148;39.604;2022-11-20T04:55:42;18.23;;;12.00;;
52031;SDS011;38044;45.148;39.604;2022-11-20T04:58:08;22.30;;;13.10;;
52031;SDS011;38044;45.148;39.604;2022-11-20T05:00:34;21.75;;;12.65;;
52031;SDS011;38044;45.148;39.604;2022-11-20T05:03:00;23.83;;;12.13;;
52031;SDS011;38044;45.148;39.604;2022-11-20T05:05:25;22.55;;;12.32;;
52031;SDS011;38044;45.148;39.604;2022-11-20T05:07:51;26.73;;;12.18;;
52031;SDS011;38044;45.148;39.604;2022-11-20T05:10:17;30.08;;;12.40;;
52031;SDS011;38044;45.148;39.604;2022-11-20T05:12:43;29.42;;;12.40;;
52031;SDS011;38044;45.148;39.604;2022-11-20T05:15:09;18.98;;;11.98;;
52031;SDS011;38044;45.148;39.604;2022-11-20T05:17:35;25.70;;;11.98;;
52031;SDS011;38044;45.148;39.604;2022-11-20T05:20:01;22.08;;;12.20;;
52031;SDS011;38044;45.148;39.604;2022-11-20T05:22:26;18.73;;;12.32;;
52031;SDS011;38044;45.148;39.604;2022-11-20T05:24:52;27.58;;;12.00;;
52031;SDS011;38044;45.148;39.604;2022-11-20T05:27:18;19.58;;;11.52;;
52031;SDS011;38044;45.148;39.604;2022-11-20T05:29:44;24.52;;;12.80;;
52031;SDS011;38044;45.148;39.604;2022-11-20T05:32:10;53.33;;;14.82;;
52031;SDS011;38044;45.148;39.604;2022-11-20T05:34:36;38.40;;;15.05;;
52031;SDS011;38044;45.148;39.604;2022-11-20T05:37:02;62.20;;;14.95;;
52031;SDS011;38044;45.148;39.604;2022-11-20T05:39:28;82.50;;;15.48;;
52031;SDS011;38044;45.148;39.604;2022-11-20T05:41:54;77.10;;;15.45;;
52031;SDS011;38044;45.148;39.604;2022-11-20T05:44:39;93.13;;;14.80;;
52031;SDS011;38044;45.148;39.604;2022-11-20T05:47:05;82.43;;;13.20;;
52031;SDS011;38044;45.148;39.604;2022-11-20T05:49:31;81.18;;;13.57;;
52031;SDS011;38044;45.148;39.604;2022-11-20T05:51:57;63.33;;;14.32;;
52031;SDS011;38044;45.148;39.604;2022-11-20T05:54:23;49.25;;;15.52;;
52031;SDS011;38044;45.148;39.604;2022-11-20T05:56:49;48.22;;;12.20;;
52031;SDS011;38044;45.148;39.604;2022-11-20T05:59:15;23.52;;;11.48;;
52031;SDS011;38044;45.148;39.604;2022-11-20T06:01:41;14.05;;;10.48;;
52031;SDS011;38044;45.148;39.604;2022-11-20T06:04:07;12.73;;;10.68;;
52031;SDS011;38044;45.148;39.604;2022-11-20T06:06:33;12.90;;;9.65;;
52031;SDS011;38044;45.148;39.604;2022-11-20T06:08:59;15.65;;;10.32;;
52031;SDS011;38044;45.148;39.604;2022-11-20T06:11:25;17.98;;;9.77;;
52031;SDS011;38044;45.148;39.604;2022-11-20T06:13:50;15.18;;;11.15;;
52031;SDS011;38044;45.148;39.604;2022-11-20T06:16:17;15.95;;;10.98;;
52031;SDS011;38044;45.148;39.604;2022-11-20T06:18:45;13.80;;;10.35;;
52031;SDS011;38044;45.148;39.604;2022-11-20T06:21:13;12.95;;;9.90;;
52031;SDS011;38044;45.148;39.604;2022-11-20T06:23:43;11.80;;;9.52;;
52031;SDS011;38044;45.148;39.604;2022-11-20T06:26:21;11.20;;;9.00;;
52031;SDS011;38044;45.148;39.604;2022-11-20T06:28:51;12.10;;;9.30;;
52031;SDS011;38044;45.148;39.604;2022-11-20T06:31:19;14.50;;;10.02;;
52031;SDS011;38044;45.148;39.604;2022-11-20T06:33:48;13.85;;;10.05;;
52031;SDS011;38044;45.148;39.604;2022-11-20T06:36:16;16.13;;;10.38;;
52031;SDS011;38044;45.148;39.604;2022-11-20T06:38:43;14.15;;;10.38;;
52031;SDS011;38044;45.148;39.604;2022-11-20T06:41:13;13.68;;;10.15;;
52031;SDS011;38044;45.148;39.604;2022-11-20T06:43:41;12.93;;;9.98;;
52031;SDS011;38044;45.148;39.604;2022-11-20T06:46:09;15.07;;;10.40;;
52031;SDS011;38044;45.148;39.604;2022-11-20T06:48:36;13.35;;;9.65;;
52031;SDS011;38044;45.148;39.604;2022-11-20T06:51:05;12.48;;;9.70;;
52031;SDS011;38044;45.148;39.604;2022-11-20T06:53:33;13.30;;;9.27;;
52031;SDS011;38044;45.148;39.604;2022-11-20T06:56:01;11.88;;;8.30;;
52031;SDS011;38044;45.148;39.604;2022-11-20T06:58:27;11.45;;;8.45;;
52031;SDS011;38044;45.148;39.604;2022-11-20T07:01:01;13.18;;;9.02;;
52031;SDS011;38044;45.148;39.604;2022-11-20T07:03:43;11.02;;;8.15;;
52031;SDS011;38044;45.148;39.604;2022-11-20T07:06:09;11.85;;;8.43;;
52031;SDS011;38044;45.148;39.604;2022-11-20T07:08:36;12.07;;;8.50;;
52031;SDS011;38044;45.148;39.604;2022-11-20T07:11:05;12.02;;;8.20;;
52031;SDS011;38044;45.148;39.604;2022-11-20T07:13:32;13.30;;;8.85;;
52031;SDS011;38044;45.148;39.604;2022-11-20T07:16:04;11.55;;;8.32;;
52031;SDS011;38044;45.148;39.604;2022-11-20T07:18:32;13.23;;;8.30;;
52031;SDS011;38044;45.148;39.604;2022-11-20T07:21:01;11.95;;;7.82;;
52031;SDS011;38044;45.148;39.604;2022-11-20T07:23:28;11.35;;;8.23;;
52031;SDS011;38044;45.148;39.604;2022-11-20T07:25:54;10.90;;;7.28;;
52031;SDS011;38044;45.148;39.604;2022-11-20T07:28:20;12.45;;;7.88;;
52031;SDS011;38044;45.148;39.604;2022-11-20T07:30:49;11.02;;;7.70;;
52031;SDS011;38044;45.148;39.604;2022-11-20T07:33:16;13.85;;;8.57;;
52031;SDS011;38044;45.148;39.604;2022-11-20T07:35:42;15.10;;;9.00;;
52031;SDS011;38044;45.148;39.604;2022-11-20T07:38:08;17.17;;;9.50;;
52031;SDS011;38044;45.148;39.604;2022-11-20T07:40:34;11.85;;;9.00;;
52031;SDS011;38044;45.148;39.604;2022-11-20T07:43:00;13.00;;;7.85;;
52031;SDS011;38044;45.148;39.604;2022-11-20T07:45:25;15.15;;;8.75;;
52031;SDS011;38044;45.148;39.604;2022-11-20T07:47:51;14.85;;;9.18;;
52031;SDS011;38044;45.148;39.604;2022-11-20T07:50:17;18.88;;;9.82;;
52031;SDS011;38044;45.148;39.604;2022-11-20T07:52:44;13.75;;;9.32;;
52031;SDS011;38044;45.148;39.604;2022-11-20T07:55:10;12.18;;;8.93;;
52031;SDS011;38044;45.148;39.604;2022-11-20T07:57:36;13.90;;;8.43;;
52031;SDS011;38044;45.148;39.604;2022-11-20T08:00:03;15.43;;;8.27;;
52031;SDS011;38044;45.148;39.604;2022-11-20T08:02:30;13.95;;;7.97;;
52031;SDS011;38044;45.148;39.604;2022-11-20T08:04:56;14.40;;;8.07;;
52031;SDS011;38044;45.148;39.604;2022-11-20T08:07:22;15.00;;;10.50;;
52031;SDS011;38044;45.148;39.604;2022-11-20T08:09:48;14.85;;;8.38;;
52031;SDS011;38044;45.148;39.604;2022-11-20T08:12:17;16.17;;;11.07;;
52031;SDS011;38044;45.148;39.604;2022-11-20T08:15:03;11.48;;;8.23;;
52031;SDS011;38044;45.148;39.604;2022-11-20T08:17:30;12.05;;;8.40;;
52031;SDS011;38044;45.148;39.604;2022-11-20T08:19:56;12.45;;;8.38;;
52031;SDS011;38044;45.148;39.604;2022-11-20T08:22:22;12.88;;;8.52;;
52031;SDS011;38044;45.148;39.604;2022-11-20T08:24:49;13.82;;;7.63;;
52031;SDS011;38044;45.148;39.604;2022-11-20T08:27:15;16.00;;;7.55;;
52031;SDS011;38044;45.148;39.604;2022-11-20T08:29:41;13.52;;;8.13;;
52031;SDS011;38044;45.148;39.604;2022-11-20T08:32:07;14.32;;;8.25;;
52031;SDS011;38044;45.148;39.604;2022-11-20T08:34:33;10.77;;;7.65;;
52031;SDS011;38044;45.148;39.604;2022-11-20T08:36:59;13.20;;;7.80;;
52031;SDS011;38044;45.148;39.604;2022-11-20T08:39:27;12.35;;;6.90;;
52031;SDS011;38044;45.148;39.604;2022-11-20T08:41:53;11.77;;;6.45;;
52031;SDS011;38044;45.148;39.604;2022-11-20T08:44:18;10.70;;;6.72;;
52031;SDS011;38044;45.148;39.604;2022-11-20T08:46:44;11.25;;;6.95;;
52031;SDS011;38044;45.148;39.604;2022-11-20T08:49:12;12.25;;;6.97;;
52031;SDS011;38044;45.148;39.604;2022-11-20T08:51:39;14.48;;;6.70;;
52031;SDS011;38044;45.148;39.604;2022-11-20T08:54:05;12.20;;;7.43;;
52031;SDS011;38044;45.148;39.604;2022-11-20T08:56:31;12.88;;;8.02;;
52031;SDS011;38044;45.148;39.604;2022-11-20T08:58:57;12.18;;;7.95;;
52031;SDS011;38044;45.148;39.604;2022-11-20T09:01:26;11.02;;;6.30;;
52031;SDS011;38044;45.148;39.604;2022-11-20T09:03:57;11.38;;;6.72;;
52031;SDS011;38044;45.148;39.604;2022-11-20T09:06:24;9.15;;;6.70;;
52031;SDS011;38044;45.148;39.604;2022-11-20T09:08:53;11.55;;;7.00;;
52031;SDS011;38044;45.148;39.604;2022-11-20T09:11:20;9.35;;;6.43;;
52031;SDS011;38044;45.148;39.604;2022-11-20T09:13:46;10.25;;;6.85;;
52031;SDS011;38044;45.148;39.604;2022-11-20T09:16:12;11.25;;;7.40;;
52031;SDS011;38044;45.148;39.604;2022-11-20T09:18:38;11.82;;;7.60;;
52031;SDS011;38044;45.148;39.604;2022-11-20T09:21:05;10.93;;;7.47;;
52031;SDS011;38044;45.148;39.604;2022-11-20T09:23:33;15.07;;;7.38;;
52031;SDS011;38044;45.148;39.604;2022-11-20T09:26:04;13.10;;;7.82;;
52031;SDS011;38044;45.148;39.604;2022-11-20T09:28:31;15.60;;;7.63;;
52031;SDS011;38044;45.148;39.604;2022-11-20T09:30:58;12.98;;;7.80;;
52031;SDS011;38044;45.148;39.604;2022-11-20T09:33:26;14.88;;;8.20;;
52031;SDS011;38044;45.148;39.604;2022-11-20T09:35:52;11.82;;;7.75;;
52031;SDS011;38044;45.148;39.604;2022-11-20T09:38:18;12.60;;;7.43;;
52031;SDS011;38044;45.148;39.604;2022-11-20T09:40:50;12.10;;;7.45;;
52031;SDS011;38044;45.148;39.604;2022-11-20T09:43:28;13.98;;;7.95;;
52031;SDS011;38044;45.148;39.604;2022-11-20T09:51:36;16.67;;;8.75;;
52031;SDS011;38044;45.148;39.604;2022-11-20T09:54:20;16.60;;;9.98;;
52031;SDS011;38044;45.148;39.604;2022-11-20T09:56:56;15.77;;;9.05;;
52031;SDS011;38044;45.148;39.604;2022-11-20T10:05:10;14.68;;;8.05;;
52031;SDS011;38044;45.148;39.604;2022-11-20T10:08:15;12.48;;;7.95;;
52031;SDS011;38044;45.148;39.604;2022-11-20T10:14:03;15.40;;;9.60;;
52031;SDS011;38044;45.148;39.604;2022-11-20T10:16:35;11.00;;;6.60;;
52031;SDS011;38044;45.148;39.604;2022-11-20T10:24:48;11.48;;;6.32;;
52031;SDS011;38044;45.148;39.604;2022-11-20T10:30:11;12.80;;;6.53;;
52031;SDS011;38044;45.148;39.604;2022-11-20T10:32:39;9.27;;;6.03;;
52031;SDS011;38044;45.148;39.604;2022-11-20T10:40:45;12.05;;;7.03;;
52031;SDS011;38044;45.148;39.604;2022-11-20T10:43:23;11.50;;;6.85;;
52031;SDS011;38044;45.148;39.604;2022-11-20T10:46:00;13.25;;;7.00;;
52031;SDS011;38044;45.148;39.604;2022-11-20T10:48:31;9.80;;;6.63;;
52031;SDS011;38044;45.148;39.604;2022-11-20T11:01:43;13.43;;;7.45;;
52031;SDS011;38044;45.148;39.604;2022-11-20T11:07:12;9.90;;;6.50;;
52031;SDS011;38044;45.148;39.604;2022-11-20T11:09:47;17.73;;;6.90;;
52031;SDS011;38044;45.148;39.604;2022-11-20T11:12:18;13.05;;;6.65;;
52031;SDS011;38044;45.148;39.604;2022-11-20T11:14:47;10.43;;;6.88;;
52031;SDS011;38044;45.148;39.604;2022-11-20T11:17:18;9.55;;;6.75;;
52031;SDS011;38044;45.148;39.604;2022-11-20T11:27:49;12.85;;;7.60;;
52031;SDS011;38044;45.148;39.604;2022-11-20T11:30:17;12.80;;;7.05;;
52031;SDS011;38044;45.148;39.604;2022-11-20T11:32:45;15.45;;;7.68;;
52031;SDS011;38044;45.148;39.604;2022-11-20T11:35:22;18.95;;;10.07;;
52031;SDS011;38044;45.148;39.604;2022-11-20T11:37:50;22.05;;;10.25;;
52031;SDS011;38044;45.148;39.604;2022-11-20T11:40:19;15.45;;;8.60;;
52031;SDS011;38044;45.148;39.604;2022-11-20T11:42:50;14.95;;;8.13;;
52031;SDS011;38044;45.148;39.604;2022-11-20T11:45:21;9.18;;;6.53;;
52031;SDS011;38044;45.148;39.604;2022-11-20T11:47:47;11.20;;;7.38;;
52031;SDS011;38044;45.148;39.604;2022-11-20T11:50:17;15.15;;;8.15;;
52031;SDS011;38044;45.148;39.604;2022-11-20T11:52:51;14.13;;;7.97;;
52031;SDS011;38044;45.148;39.604;2022-11-20T12:00:33;22.70;;;10.27;;
52031;SDS011;38044;45.148;39.604;2022-11-20T12:03:12;27.05;;;13.48;;
52031;SDS011;38044;45.148;39.604;2022-11-20T12:05:45;26.00;;;11.10;;
52031;SDS011;38044;45.148;39.604;2022-11-20T12:08:49;24.10;;;11.60;;
52031;SDS011;38044;45.148;39.604;2022-11-20T12:16:21;22.65;;;11.57;;
52031;SDS011;38044;45.148;39.604;2022-11-20T12:18:49;17.70;;;11.15;;
52031;SDS011;38044;45.148;39.604;2022-11-20T12:23:52;51.85;;;17.60;;
52031;SDS011;38044;45.148;39.604;2022-11-20T12:35:35;34.05;;;12.10;;
52031;SDS011;38044;45.148;39.604;2022-11-20T12:38:35;25.00;;;13.35;;
52031;SDS011;38044;45.148;39.604;2022-11-20T12:56:25;20.17;;;9.90;;
52031;SDS011;38044;45.148;39.604;2022-11-20T13:02:39;15.05;;;9.75;;
52031;SDS011;38044;45.148;39.604;2022-11-20T13:08:03;13.75;;;9.20;;
52031;SDS011;38044;45.148;39.604;2022-11-20T13:10:48;15.95;;;10.25;;
52031;SDS011;38044;45.148;39.604;2022-11-20T13:16:15;16.25;;;9.90;;
52031;SDS011;38044;45.148;39.604;2022-11-20T13:18:45;13.65;;;9.43;;
52031;SDS011;38044;45.148;39.604;2022-11-20T13:21:18;15.80;;;9.88;;
52031;SDS011;38044;45.148;39.604;2022-11-20T13:23:46;14.55;;;9.32;;
52031;SDS011;38044;45.148;39.604;2022-11-20T13:26:16;19.90;;;9.68;;
52031;SDS011;38044;45.148;39.604;2022-11-20T13:28:47;11.73;;;8.63;;
52031;SDS011;38044;45.148;39.604;2022-11-20T13:31:29;14.75;;;8.45;;
52031;SDS011;38044;45.148;39.604;2022-11-20T13:33:57;16.60;;;8.38;;
52031;SDS011;38044;45.148;39.604;2022-11-20T13:36:27;13.90;;;8.77;;
52031;SDS011;38044;45.148;39.604;2022-11-20T13:38:55;14.43;;;9.52;;
52031;SDS011;38044;45.148;39.604;2022-11-20T13:41:34;13.70;;;9.15;;
52031;SDS011;38044;45.148;39.604;2022-11-20T13:46:41;14.32;;;9.40;;
52031;SDS011;38044;45.148;39.604;2022-11-20T13:49:18;23.60;;;10.05;;
52031;SDS011;38044;45.148;39.604;2022-11-20T13:51:56;15.50;;;10.13;;
52031;SDS011;38044;45.148;39.604;2022-11-20T13:54:55;16.95;;;11.07;;
52031;SDS011;38044;45.148;39.604;2022-11-20T14:00:15;20.95;;;10.40;;
52031;SDS011;38044;45.148;39.604;2022-11-20T14:02:43;17.20;;;9.60;;
52031;SDS011;38044;45.148;39.604;2022-11-20T14:05:19;14.02;;;10.07;;
52031;SDS011;38044;45.148;39.604;2022-11-20T14:07:47;18.05;;;9.32;;
52031;SDS011;38044;45.148;39.604;2022-11-20T14:10:24;14.27;;;10.00;;
52031;SDS011;38044;45.148;39.604;2022-11-20T14:12:52;17.10;;;10.07;;
52031;SDS011;38044;45.148;39.604;2022-11-20T14:15:26;14.75;;;10.63;;
52031;SDS011;38044;45.148;39.604;2022-11-20T14:17:54;22.55;;;12.20;;
52031;SDS011;38044;45.148;39.604;2022-11-20T14:20:20;18.95;;;11.82;;
52031;SDS011;38044;45.148;39.604;2022-11-20T14:22:52;22.02;;;13.60;;
52031;SDS011;38044;45.148;39.604;2022-11-20T14:25:25;22.23;;;12.63;;
52031;SDS011;38044;45.148;39.604;2022-11-20T14:27:57;23.42;;;14.38;;
52031;SDS011;38044;45.148;39.604;2022-11-20T14:30:44;24.75;;;13.93;;
52031;SDS011;38044;45.148;39.604;2022-11-20T14:33:12;24.27;;;15.48;;
52031;SDS011;38044;45.148;39.604;2022-11-20T14:36:01;24.77;;;15.07;;
52031;SDS011;38044;45.148;39.604;2022-11-20T14:38:27;24.42;;;14.13;;
52031;SDS011;38044;45.148;39.604;2022-11-20T14:41:07;29.08;;;15.45;;
52031;SDS011;38044;45.148;39.604;2022-11-20T14:43:34;26.13;;;14.50;;
52031;SDS011;38044;45.148;39.604;2022-11-20T14:46:07;24.55;;;14.38;;
52031;SDS011;38044;45.148;39.604;2022-11-20T14:48:39;26.27;;;14.93;;
52031;SDS011;38044;45.148;39.604;2022-11-20T14:51:11;22.25;;;14.38;;
52031;SDS011;38044;45.148;39.604;2022-11-20T14:53:48;23.40;;;15.13;;
52031;SDS011;38044;45.148;39.604;2022-11-20T14:56:14;31.45;;;15.38;;
52031;SDS011;38044;45.148;39.604;2022-11-20T14:58:55;23.20;;;14.70;;
52031;SDS011;38044;45.148;39.604;2022-11-20T15:01:25;22.10;;;14.80;;
52031;SDS011;38044;45.148;39.604;2022-11-20T15:06:52;25.83;;;15.27;;
52031;SDS011;38044;45.148;39.604;2022-11-20T15:09:20;26.42;;;15.10;;
52031;SDS011;38044;45.148;39.604;2022-11-20T15:11:53;23.52;;;14.63;;
52031;SDS011;38044;45.148;39.604;2022-11-20T15:14:23;22.20;;;14.82;;
52031;SDS011;38044;45.148;39.604;2022-11-20T15:16:51;27.10;;;16.50;;
52031;SDS011;38044;45.148;39.604;2022-11-20T15:19:19;26.75;;;16.88;;
52031;SDS011;38044;45.148;39.604;2022-11-20T15:21:47;29.77;;;16.77;;
52031;SDS011;38044;45.148;39.604;2022-11-20T15:24:13;27.83;;;17.67;;
52031;SDS011;38044;45.148;39.604;2022-11-20T15:26:41;32.90;;;18.75;;
52031;SDS011;38044;45.148;39.604;2022-11-20T15:29:08;35.25;;;18.30;;
52031;SDS011;38044;45.148;39.604;2022-11-20T15:31:39;31.58;;;18.15;;
52031;SDS011;38044;45.148;39.604;2022-11-20T15:34:11;30.75;;;18.88;;
52031;SDS011;38044;45.148;39.604;2022-11-20T15:36:38;36.67;;;19.30;;
52031;SDS011;38044;45.148;39.604;2022-11-20T15:39:06;33.58;;;18.48;;
52031;SDS011;38044;45.148;39.604;2022-11-20T15:41:33;29.70;;;18.83;;
52031;SDS011;38044;45.148;39.604;2022-11-20T15:43:59;35.05;;;19.48;;
52031;SDS011;38044;45.148;39.604;2022-11-20T15:46:26;33.97;;;19.13;;
52031;SDS011;38044;45.148;39.604;2022-11-20T15:48:58;29.38;;;19.05;;
52031;SDS011;38044;45.148;39.604;2022-11-20T15:51:30;33.13;;;20.00;;
52031;SDS011;38044;45.148;39.604;2022-11-20T15:53:59;33.20;;;20.45;;
52031;SDS011;38044;45.148;39.604;2022-11-20T15:56:25;34.85;;;20.02;;
52031;SDS011;38044;45.148;39.604;2022-11-20T15:58:51;33.53;;;19.98;;
52031;SDS011;38044;45.148;39.604;2022-11-20T16:01:18;32.95;;;20.27;;
52031;SDS011;38044;45.148;39.604;2022-11-20T16:03:46;31.50;;;20.08;;
52031;SDS011;38044;45.148;39.604;2022-11-20T16:06:12;33.65;;;20.63;;
52031;SDS011;38044;45.148;39.604;2022-11-20T16:08:38;41.63;;;20.60;;
52031;SDS011;38044;45.148;39.604;2022-11-20T16:11:04;37.75;;;21.40;;
52031;SDS011;38044;45.148;39.604;2022-11-20T16:13:30;42.47;;;22.90;;